This is the latest recevied weather packets stored in our database for station/object E22ZMG-4. If no packets are shown the sender has not sent any weather packets the latest 10 day(s).
| Time | Temp. | Humidity | Pressure | Rain* | Wind** | Luminosity | Snow |
|---|---|---|---|---|---|---|---|
| 1777534587 | 26.11° C | 43% | 974 hPa | - | - | 0 W/m² | - |
| 1777533963 | 26.11° C | 44% | 974 hPa | - | - | 0 W/m² | - |
| 1777533338 | 26.67° C | 45% | 974 hPa | - | - | 0 W/m² | - |
| 1777532713 | 26.67° C | 48% | 975 hPa | - | - | 0 W/m² | - |
| 1777532088 | 26.67° C | 43% | 975 hPa | - | - | 0 W/m² | - |
| 1777531464 | 27.22° C | 48% | 975 hPa | - | - | 0 W/m² | - |
| 1777530838 | 27.22° C | 50% | 975 hPa | - | - | 0 W/m² | - |
| 1777530214 | 27.22° C | 48% | 976 hPa | - | - | 0 W/m² | - |
| 1777529589 | 26.67° C | 48% | 976 hPa | - | - | 0 W/m² | - |
| 1777528963 | 27.22° C | 50% | 976 hPa | - | - | 0 W/m² | - |
| 1777528339 | 26.67° C | 47% | 977 hPa | - | - | 0 W/m² | - |
| 1777527714 | 26.67° C | 44% | 977 hPa | - | - | 0 W/m² | - |
| 1777527088 | 26.67° C | 47% | 977 hPa | - | - | 0 W/m² | - |
| 1777526463 | 26.67° C | 45% | 977 hPa | - | - | 0 W/m² | - |
| 1777525838 | 26.67° C | 49% | 977 hPa | - | - | 0 W/m² | - |
| 1777525213 | 26.67° C | 49% | 977 hPa | - | - | 0 W/m² | - |
| 1777524589 | 26.67° C | 57% | 978 hPa | - | - | 0 W/m² | - |
| 1777523964 | 26.11° C | 42% | 978 hPa | - | - | 0 W/m² | - |
| 1777523340 | 26.67° C | 45% | 978 hPa | - | - | 0 W/m² | - |
| 1777522716 | 27.22° C | 52% | 978 hPa | - | - | 0 W/m² | - |
| 1777522091 | 26.67° C | 54% | 978 hPa | - | - | 0 W/m² | - |
| 1777521467 | 26.67° C | 48% | 978 hPa | - | - | 0 W/m² | - |
| 1777520842 | 27.22° C | 56% | 978 hPa | - | - | 0 W/m² | - |
| 1777520217 | 26.11° C | 42% | 978 hPa | - | - | 0 W/m² | - |
| 1777519591 | 27.22° C | 46% | 978 hPa | - | - | 0 W/m² | - |
* Rain since midnight (hover to see other rain measurements)
** Current wind speed in m/s (hover to see current wind gust speed)